createdAt,value
2018-08-16T00:00:04.800Z,67.00
2018-08-16T00:02:37.960Z,67.00
2018-08-16T00:05:12.293Z,67.10
2018-08-16T00:07:48.234Z,67.20
2018-08-16T00:10:22.599Z,67.10
2018-08-16T00:12:56.323Z,67.10
2018-08-16T00:15:31.196Z,67.20
2018-08-16T00:18:05.045Z,67.60
2018-08-16T00:20:40.306Z,67.30
2018-08-16T00:23:14.205Z,67.40
2018-08-16T00:25:48.019Z,67.40
2018-08-16T00:28:23.134Z,67.70
2018-08-16T00:30:57.082Z,67.60
2018-08-16T00:33:31.474Z,67.60
2018-08-16T00:36:06.128Z,67.70
2018-08-16T00:38:40.380Z,67.80
2018-08-16T00:41:16.219Z,68.10
2018-08-16T00:43:50.123Z,68.20
2018-08-16T00:46:25.734Z,68.20
2018-08-16T00:49:00.049Z,68.10
2018-08-16T00:51:33.696Z,68.20
2018-08-16T00:54:08.944Z,68.20
2018-08-16T00:56:42.619Z,68.20
2018-08-16T00:59:16.430Z,68.30
2018-08-16T01:01:50.201Z,68.30
2018-08-16T01:04:23.998Z,68.30
2018-08-16T01:06:57.706Z,68.40
2018-08-16T01:09:32.069Z,68.30
2018-08-16T01:12:05.786Z,68.30
2018-08-16T01:14:39.458Z,68.60
2018-08-16T01:17:13.490Z,68.60
2018-08-16T01:19:47.206Z,68.60
2018-08-16T01:22:20.790Z,68.50
2018-08-16T01:24:54.538Z,68.60
2018-08-16T01:27:28.124Z,68.70
2018-08-16T01:30:01.987Z,68.70
2018-08-16T01:32:36.049Z,68.70
2018-08-16T01:35:13.613Z,68.70
2018-08-16T01:37:47.175Z,68.70
2018-08-16T01:40:20.838Z,68.70
2018-08-16T01:42:55.127Z,68.70
2018-08-16T01:45:28.846Z,68.80
2018-08-16T01:48:03.062Z,68.80
2018-08-16T01:50:36.696Z,69.10
2018-08-16T01:53:10.643Z,69.10
2018-08-16T01:55:44.296Z,69.00
2018-08-16T01:58:17.897Z,69.10
2018-08-16T02:00:53.072Z,69.20
2018-08-16T02:03:26.647Z,69.40
2018-08-16T02:06:00.226Z,69.40
2018-08-16T02:08:33.729Z,69.40
2018-08-16T02:11:08.480Z,69.50
2018-08-16T02:13:43.081Z,69.60
2018-08-16T02:16:16.027Z,69.70
2018-08-16T02:18:48.957Z,69.70
2018-08-16T02:21:22.686Z,69.70
2018-08-16T02:23:55.591Z,69.70
2018-08-16T02:26:28.855Z,69.80
2018-08-16T02:29:01.881Z,69.80
2018-08-16T02:31:36.406Z,69.80
2018-08-16T02:34:09.497Z,69.80
2018-08-16T02:36:42.751Z,69.80
2018-08-16T02:39:15.753Z,69.70
2018-08-16T02:41:48.681Z,69.70
2018-08-16T02:44:21.872Z,69.80
2018-08-16T02:46:54.781Z,70.00
2018-08-16T02:49:28.853Z,69.80
2018-08-16T02:52:02.115Z,70.00
2018-08-16T02:54:35.149Z,70.10
2018-08-16T02:57:09.737Z,70.10
2018-08-16T02:59:43.574Z,70.10
2018-08-16T03:02:16.510Z,70.10
2018-08-16T03:04:49.335Z,70.20
2018-08-16T03:07:24.983Z,70.30
2018-08-16T03:10:00.275Z,70.30
2018-08-16T03:12:33.188Z,70.30
2018-08-16T03:15:06.146Z,70.20
2018-08-16T03:17:39.334Z,70.20
2018-08-16T03:20:12.478Z,70.40
2018-08-16T03:22:46.431Z,70.50
2018-08-16T03:25:19.289Z,70.70
2018-08-16T03:27:53.662Z,70.60
2018-08-16T03:30:26.620Z,70.70
2018-08-16T03:32:59.639Z,70.70
2018-08-16T03:35:32.567Z,70.70
2018-08-16T03:38:05.498Z,70.80
2018-08-16T03:40:52.956Z,70.90
2018-08-16T03:43:25.803Z,70.80
2018-08-16T03:45:58.634Z,70.90
2018-08-16T03:48:31.686Z,70.90
2018-08-16T03:51:04.611Z,70.80
2018-08-16T03:53:38.291Z,70.80
2018-08-16T03:56:11.401Z,71.00
2018-08-16T03:58:44.770Z,70.80
2018-08-16T04:01:17.703Z,71.00
2018-08-16T04:03:50.597Z,70.80
2018-08-16T04:06:23.477Z,70.80
2018-08-16T04:08:56.484Z,70.90
2018-08-16T04:11:30.808Z,70.80
2018-08-16T04:14:03.969Z,70.80
2018-08-16T04:16:36.812Z,70.80
2018-08-16T04:19:09.709Z,70.90
2018-08-16T04:21:42.565Z,70.90
2018-08-16T04:24:16.141Z,70.90
2018-08-16T04:26:49.105Z,70.90
2018-08-16T04:29:21.982Z,70.70
2018-08-16T04:31:54.912Z,70.80
2018-08-16T04:34:27.803Z,70.80
2018-08-16T04:37:00.904Z,70.90
2018-08-16T04:39:33.796Z,70.90
2018-08-16T04:42:06.904Z,70.80
2018-08-16T04:44:39.778Z,70.90
2018-08-16T04:47:12.743Z,70.70
2018-08-16T04:49:45.694Z,70.70
2018-08-16T04:52:19.709Z,70.70
2018-08-16T04:54:53.150Z,70.60
2018-08-16T04:57:26.139Z,70.60
2018-08-16T04:59:59.026Z,70.50
2018-08-16T05:02:31.960Z,70.40
2018-08-16T05:05:04.779Z,70.50
2018-08-16T05:07:39.279Z,70.40
2018-08-16T05:10:13.329Z,70.40
2018-08-16T05:12:46.209Z,70.40
2018-08-16T05:15:24.977Z,70.30
2018-08-16T05:17:57.854Z,70.20
2018-08-16T05:20:32.063Z,70.30
2018-08-16T05:23:04.842Z,70.30
2018-08-16T05:25:37.732Z,70.20
2018-08-16T05:28:11.785Z,70.10
2018-08-16T05:30:44.599Z,70.10
2018-08-16T05:33:17.929Z,70.10
2018-08-16T05:35:50.804Z,70.00
2018-08-16T05:38:24.607Z,70.00
2018-08-16T05:40:57.441Z,70.00
2018-08-16T05:43:30.364Z,69.80
2018-08-16T05:46:03.402Z,69.70
2018-08-16T05:48:36.195Z,69.70
2018-08-16T05:51:11.440Z,69.70
2018-08-16T05:53:44.317Z,69.60
2018-08-16T05:56:17.242Z,69.50
2018-08-16T05:58:52.666Z,69.50
2018-08-16T06:01:26.951Z,69.40
2018-08-16T06:04:00.643Z,69.40
2018-08-16T06:06:33.569Z,69.30
2018-08-16T06:09:07.077Z,69.20
2018-08-16T06:11:40.022Z,69.20
2018-08-16T06:14:12.977Z,69.10
2018-08-16T06:16:46.291Z,69.00
2018-08-16T06:19:19.268Z,69.00
2018-08-16T06:21:52.715Z,69.00
2018-08-16T06:24:25.594Z,68.90
2018-08-16T06:26:58.514Z,68.90
2018-08-16T06:29:31.479Z,68.80
2018-08-16T06:32:04.356Z,68.70
2018-08-16T06:34:37.522Z,68.70
2018-08-16T06:37:10.422Z,68.60
2018-08-16T06:39:43.792Z,68.70
2018-08-16T06:42:16.707Z,68.60
2018-08-16T06:44:49.663Z,68.60
2018-08-16T06:47:23.041Z,68.50
2018-08-16T06:49:55.906Z,68.50
2018-08-16T06:52:29.535Z,68.50
2018-08-16T06:55:02.843Z,68.50
2018-08-16T06:57:35.842Z,68.50
2018-08-16T07:00:09.737Z,68.30
2018-08-16T07:02:42.726Z,68.30
2018-08-16T07:05:17.167Z,68.70
2018-08-16T07:07:50.103Z,68.20
2018-08-16T07:10:22.984Z,68.10
2018-08-16T07:12:55.992Z,68.10
2018-08-16T07:15:29.998Z,68.10
2018-08-16T07:18:04.020Z,68.00
2018-08-16T07:20:36.891Z,68.00
2018-08-16T07:23:09.895Z,68.00
2018-08-16T07:25:42.851Z,67.90
2018-08-16T07:28:15.706Z,67.80
2018-08-16T07:30:48.985Z,67.80
2018-08-16T07:33:22.712Z,67.90
2018-08-16T07:35:56.738Z,67.80
2018-08-16T07:38:29.878Z,67.80
2018-08-16T07:41:02.735Z,67.80
2018-08-16T07:43:35.683Z,67.70
2018-08-16T07:46:10.773Z,67.60
2018-08-16T07:48:46.090Z,67.60
2018-08-16T07:51:20.567Z,67.60
2018-08-16T07:53:53.495Z,67.50
2018-08-16T07:56:26.542Z,67.50
2018-08-16T07:59:00.003Z,67.40
2018-08-16T08:01:34.035Z,67.40
2018-08-16T08:04:06.974Z,67.40
2018-08-16T08:06:40.914Z,67.30
2018-08-16T08:09:14.714Z,67.30
2018-08-16T08:11:48.697Z,67.30
2018-08-16T08:14:22.638Z,67.20
2018-08-16T08:16:55.567Z,67.20
2018-08-16T08:19:29.588Z,67.30
2018-08-16T08:22:02.752Z,67.20
2018-08-16T08:24:35.639Z,67.10
2018-08-16T08:27:10.334Z,67.10
2018-08-16T08:29:43.184Z,67.10
2018-08-16T08:32:18.406Z,67.00
2018-08-16T08:34:51.341Z,67.00
2018-08-16T08:37:33.252Z,66.90
2018-08-16T08:40:06.581Z,66.80
2018-08-16T08:42:39.597Z,66.80
2018-08-16T08:45:12.939Z,66.80
2018-08-16T08:47:49.536Z,66.90
2018-08-16T08:50:22.455Z,66.80
2018-08-16T08:52:55.542Z,66.70
2018-08-16T08:55:37.427Z,66.70
2018-08-16T08:58:21.927Z,66.70
2018-08-16T09:00:54.822Z,66.70
2018-08-16T09:03:27.741Z,66.70
2018-08-16T09:06:00.660Z,66.60
2018-08-16T09:08:33.601Z,66.60
2018-08-16T09:11:18.680Z,66.60
2018-08-16T09:14:04.610Z,66.70
2018-08-16T09:16:43.962Z,66.60
2018-08-16T09:19:16.977Z,66.60
2018-08-16T09:21:49.868Z,66.60
2018-08-16T09:24:23.381Z,66.50
2018-08-16T09:26:56.207Z,66.50
2018-08-16T09:30:13.440Z,66.40
2018-08-16T09:32:55.455Z,66.40
2018-08-16T09:35:29.417Z,66.40
2018-08-16T09:38:03.207Z,66.40
2018-08-16T09:40:36.604Z,66.30
2018-08-16T09:43:10.462Z,66.30
2018-08-16T09:45:55.375Z,67.10
2018-08-16T09:48:37.081Z,66.30
2018-08-16T09:51:09.928Z,66.30
2018-08-16T09:53:42.894Z,66.30
2018-08-16T09:56:16.850Z,66.30
2018-08-16T09:58:50.409Z,66.20
2018-08-16T10:01:23.374Z,66.20
2018-08-16T10:03:56.280Z,66.20
2018-08-16T10:06:31.518Z,66.10
2018-08-16T10:09:04.730Z,66.00
2018-08-16T10:11:38.138Z,66.00
2018-08-16T10:14:11.019Z,66.00
2018-08-16T10:16:44.412Z,66.00
2018-08-16T10:19:17.400Z,65.90
2018-08-16T10:21:50.374Z,65.90
2018-08-16T10:24:23.309Z,65.90
2018-08-16T10:26:56.232Z,65.80
2018-08-16T10:29:29.766Z,65.80
2018-08-16T10:32:03.377Z,65.80
2018-08-16T10:34:36.295Z,65.80
2018-08-16T10:37:10.134Z,65.90
2018-08-16T10:39:43.069Z,65.90
2018-08-16T10:42:16.761Z,65.90
2018-08-16T10:44:49.628Z,65.90
2018-08-16T10:47:22.852Z,65.90
2018-08-16T10:49:55.685Z,65.90
2018-08-16T10:52:28.682Z,66.60
2018-08-16T10:55:01.554Z,65.90
2018-08-16T10:57:34.515Z,65.90
2018-08-16T11:00:08.576Z,65.90
2018-08-16T11:02:41.465Z,65.90
2018-08-16T11:05:14.868Z,65.90
2018-08-16T11:07:47.723Z,65.90
2018-08-16T11:10:20.538Z,65.90
2018-08-16T11:12:54.163Z,65.90
2018-08-16T11:15:27.077Z,65.90
2018-08-16T11:17:59.959Z,65.90
2018-08-16T11:20:32.987Z,65.90
2018-08-16T11:23:05.974Z,65.90
2018-08-16T11:25:39.231Z,65.80
2018-08-16T11:28:12.159Z,65.90
2018-08-16T11:30:45.435Z,65.90
2018-08-16T11:33:18.479Z,65.80
2018-08-16T11:35:51.434Z,65.90
2018-08-16T11:38:24.451Z,65.90
2018-08-16T11:40:58.059Z,66.00
2018-08-16T11:43:31.030Z,65.90
2018-08-16T11:46:05.027Z,65.90
2018-08-16T11:48:37.829Z,66.00
2018-08-16T11:51:10.922Z,65.90
2018-08-16T11:53:43.806Z,66.00
2018-08-16T11:56:16.926Z,65.90
2018-08-16T11:58:50.017Z,66.00
2018-08-16T12:01:23.051Z,65.90
2018-08-16T12:03:56.412Z,66.00
2018-08-16T12:06:30.207Z,66.00
2018-08-16T12:09:03.786Z,66.00
2018-08-16T12:11:36.858Z,66.00
2018-08-16T12:14:11.229Z,66.00
2018-08-16T12:16:44.085Z,66.10
2018-08-16T12:19:17.103Z,66.10
2018-08-16T12:21:50.905Z,66.10
2018-08-16T12:24:23.754Z,66.10
2018-08-16T12:26:57.240Z,66.10
2018-08-16T12:29:30.187Z,66.10
2018-08-16T12:32:03.206Z,66.20
2018-08-16T12:34:36.554Z,66.10
2018-08-16T12:37:09.476Z,66.20
2018-08-16T12:39:42.730Z,66.20
2018-08-16T12:42:15.928Z,66.10
2018-08-16T12:44:48.987Z,66.20
2018-08-16T12:47:22.050Z,66.20
2018-08-16T12:49:55.106Z,66.30
2018-08-16T12:52:28.496Z,66.20
2018-08-16T12:55:01.365Z,66.20
2018-08-16T12:57:34.550Z,66.40
2018-08-16T13:00:07.959Z,67.20
2018-08-16T13:02:40.892Z,67.60
2018-08-16T13:05:14.761Z,67.90
2018-08-16T13:07:47.801Z,68.40
2018-08-16T13:10:21.569Z,68.40
2018-08-16T13:12:54.650Z,68.40
2018-08-16T13:15:27.588Z,68.50
2018-08-16T13:18:00.573Z,68.50
2018-08-16T13:20:33.586Z,68.60
2018-08-16T13:23:06.953Z,68.50
2018-08-16T13:25:39.990Z,68.60
2018-08-16T13:28:12.860Z,68.50
2018-08-16T13:30:45.761Z,68.50
2018-08-16T13:33:18.719Z,68.60
2018-08-16T13:35:51.556Z,68.70
2018-08-16T13:38:24.492Z,68.80
2018-08-16T13:40:58.555Z,69.00
2018-08-16T13:43:31.578Z,69.20
2018-08-16T13:46:04.455Z,69.20
2018-08-16T13:48:37.436Z,69.50
2018-08-16T13:51:10.361Z,69.40
2018-08-16T13:53:45.522Z,69.30
2018-08-16T13:56:18.522Z,69.40
2018-08-16T13:58:52.481Z,69.40
2018-08-16T14:01:25.420Z,69.60
2018-08-16T14:03:58.840Z,69.60
2018-08-16T14:06:33.210Z,69.70
2018-08-16T14:09:06.458Z,69.70
2018-08-16T14:11:39.470Z,69.90
2018-08-16T14:14:12.806Z,69.80
2018-08-16T14:16:45.942Z,69.90
2018-08-16T14:19:19.225Z,70.00
2018-08-16T14:21:53.193Z,70.20
2018-08-16T14:24:26.614Z,70.30
2018-08-16T14:26:59.645Z,70.30
2018-08-16T14:29:32.675Z,70.50
2018-08-16T14:32:06.149Z,70.40
2018-08-16T14:34:39.659Z,70.30
2018-08-16T14:37:15.418Z,70.40
2018-08-16T14:39:48.808Z,70.30
2018-08-16T14:42:22.225Z,70.40
2018-08-16T14:44:55.755Z,70.40
2018-08-16T14:47:35.366Z,71.30
2018-08-16T14:50:09.505Z,70.70
2018-08-16T14:52:42.509Z,71.50
2018-08-16T14:55:16.060Z,71.40
2018-08-16T14:57:49.077Z,71.40
2018-08-16T15:00:22.090Z,71.10
2018-08-16T15:02:56.368Z,71.00
2018-08-16T15:05:29.270Z,71.10
2018-08-16T15:08:02.575Z,71.10
2018-08-16T15:10:35.627Z,71.20
2018-08-16T15:13:08.674Z,71.70
2018-08-16T15:15:41.606Z,67.50
2018-08-16T15:18:15.086Z,64.70
2018-08-16T15:20:48.336Z,61.80
2018-08-16T15:23:22.091Z,59.50
2018-08-16T15:25:55.726Z,58.30
2018-08-16T15:28:28.700Z,56.90
2018-08-16T15:31:01.509Z,55.70
2018-08-16T15:33:35.204Z,54.70
2018-08-16T15:36:08.101Z,53.80
2018-08-16T15:38:41.623Z,53.20
2018-08-16T15:41:14.757Z,52.40
2018-08-16T15:43:47.599Z,52.20
2018-08-16T15:46:20.867Z,51.60
2018-08-16T15:48:53.853Z,51.70
2018-08-16T15:51:28.328Z,51.00
2018-08-16T15:54:01.258Z,50.80
2018-08-16T15:56:34.195Z,50.70
2018-08-16T15:59:07.138Z,50.50
2018-08-16T16:01:40.194Z,50.30
2018-08-16T16:04:13.347Z,50.00
2018-08-16T16:06:46.167Z,50.30
2018-08-16T16:09:19.507Z,53.40
2018-08-16T16:11:53.411Z,55.20
2018-08-16T16:14:27.662Z,55.80
2018-08-16T16:17:00.616Z,53.90
2018-08-16T16:19:34.778Z,52.50
2018-08-16T16:22:08.136Z,54.80
2018-08-16T16:24:41.038Z,56.80
2018-08-16T16:27:14.695Z,58.00
2018-08-16T16:29:47.574Z,56.20
2018-08-16T16:32:20.986Z,54.50
2018-08-16T16:34:54.298Z,54.80
2018-08-16T16:37:27.216Z,56.90
2018-08-16T16:40:00.088Z,58.30
2018-08-16T16:42:33.806Z,57.70
2018-08-16T16:45:06.856Z,55.60
2018-08-16T16:47:40.966Z,55.90
2018-08-16T16:50:13.880Z,58.50
2018-08-16T16:52:48.426Z,59.80
2018-08-16T16:55:22.910Z,58.40
2018-08-16T16:57:55.820Z,56.30
2018-08-16T17:00:29.926Z,54.80
2018-08-16T17:03:02.943Z,57.20
2018-08-16T17:05:36.292Z,59.20
2018-08-16T17:08:09.306Z,59.40
2018-08-16T17:10:42.332Z,56.90
2018-08-16T17:13:15.298Z,58.10
2018-08-16T17:15:48.284Z,59.30
2018-08-16T17:18:21.268Z,61.00
2018-08-16T17:20:55.362Z,58.50
2018-08-16T17:23:28.382Z,57.20
2018-08-16T17:26:01.539Z,59.10
2018-08-16T17:28:34.579Z,60.90
2018-08-16T17:31:08.950Z,60.80
2018-08-16T17:33:41.896Z,58.20
2018-08-16T17:36:16.007Z,58.50
2018-08-16T17:38:49.945Z,60.30
2018-08-16T17:41:22.894Z,62.30
2018-08-16T17:43:55.837Z,59.40
2018-08-16T17:46:30.761Z,59.00
2018-08-16T17:49:05.502Z,61.60
2018-08-16T17:51:38.522Z,62.90
2018-08-16T17:54:11.507Z,61.00
2018-08-16T17:56:44.458Z,58.30
2018-08-16T17:59:17.444Z,60.90
2018-08-16T18:01:50.504Z,62.70
2018-08-16T18:04:24.298Z,63.50
2018-08-16T18:06:57.234Z,59.70
2018-08-16T18:09:30.222Z,59.80
2018-08-16T18:12:03.123Z,62.50
2018-08-16T18:14:35.935Z,63.90
2018-08-16T18:17:08.899Z,61.20
2018-08-16T18:19:42.034Z,63.20
2018-08-16T18:22:14.967Z,64.30
2018-08-16T18:24:47.986Z,64.50
2018-08-16T18:27:20.958Z,61.00
2018-08-16T18:29:54.770Z,63.70
2018-08-16T18:32:29.072Z,64.90
2018-08-16T18:35:01.962Z,65.70
2018-08-16T18:37:34.910Z,62.20
2018-08-16T18:40:08.186Z,64.70
2018-08-16T18:42:41.146Z,66.00
2018-08-16T18:45:15.010Z,65.70
2018-08-16T18:47:48.230Z,62.80
2018-08-16T18:50:21.148Z,65.10
2018-08-16T18:52:54.030Z,66.30
2018-08-16T18:55:26.994Z,65.00
2018-08-16T18:57:59.885Z,63.60
2018-08-16T19:00:37.471Z,65.70
2018-08-16T19:03:10.872Z,66.70
2018-08-16T19:05:43.959Z,64.90
2018-08-16T19:08:16.859Z,63.90
2018-08-16T19:10:49.727Z,65.80
2018-08-16T19:13:22.686Z,67.10
2018-08-16T19:15:56.898Z,64.40
2018-08-16T19:18:29.780Z,63.60
2018-08-16T19:21:02.733Z,65.90
2018-08-16T19:23:37.782Z,67.80
2018-08-16T19:26:10.686Z,64.40
2018-08-16T19:28:43.947Z,65.30
2018-08-16T19:31:16.849Z,66.80
2018-08-16T19:33:49.706Z,67.60
2018-08-16T19:36:22.696Z,64.10
2018-08-16T19:38:56.301Z,65.80
2018-08-16T19:41:30.469Z,67.10
2018-08-16T19:44:03.476Z,67.30
2018-08-16T19:46:36.862Z,63.30
2018-08-16T19:49:10.030Z,65.80
2018-08-16T19:51:43.014Z,67.50
2018-08-16T19:54:15.830Z,67.50
2018-08-16T19:56:48.745Z,64.10
2018-08-16T19:59:22.301Z,66.30
2018-08-16T20:01:55.180Z,67.50
2018-08-16T20:04:28.040Z,66.90
2018-08-16T20:07:01.051Z,64.00
2018-08-16T20:09:34.011Z,66.40
2018-08-16T20:12:08.117Z,67.70
2018-08-16T20:14:41.940Z,66.60
2018-08-16T20:17:16.226Z,64.50
2018-08-16T20:19:49.059Z,66.70
2018-08-16T20:22:22.835Z,68.00
2018-08-16T20:24:55.756Z,65.90
2018-08-16T20:27:29.263Z,64.90
2018-08-16T20:30:02.492Z,67.10
2018-08-16T20:32:35.387Z,67.70
2018-08-16T20:35:09.897Z,65.50
2018-08-16T20:37:42.908Z,67.30
2018-08-16T20:40:15.847Z,68.00
2018-08-16T20:42:50.412Z,68.00
2018-08-16T20:45:23.487Z,64.30
2018-08-16T20:47:56.388Z,67.10
2018-08-16T20:50:29.381Z,67.70
2018-08-16T20:53:02.271Z,68.30
2018-08-16T20:55:35.785Z,65.50
2018-08-16T20:58:08.732Z,67.70
2018-08-16T21:00:41.938Z,69.10
2018-08-16T21:03:14.979Z,67.30
2018-08-16T21:05:47.867Z,66.40
2018-08-16T21:08:20.897Z,68.40
2018-08-16T21:10:53.761Z,69.00
2018-08-16T21:13:28.181Z,66.40
2018-08-16T21:18:39.112Z,68.90
2018-08-16T21:21:12.008Z,69.50
2018-08-16T21:23:44.859Z,66.90
2018-08-16T21:26:18.160Z,68.80
2018-08-16T21:28:51.225Z,69.70
2018-08-16T21:31:25.950Z,68.20
2018-08-16T21:33:58.813Z,68.30
2018-08-16T21:36:32.762Z,69.50
2018-08-16T21:39:05.890Z,69.70
2018-08-16T21:41:38.901Z,66.70
2018-08-16T21:44:13.563Z,68.70
2018-08-16T21:46:46.435Z,70.00
2018-08-16T21:49:19.386Z,70.00
2018-08-16T21:51:53.211Z,68.20
2018-08-16T21:54:26.205Z,69.80
2018-08-16T21:56:59.565Z,70.40
2018-08-16T21:59:32.506Z,67.80
2018-08-16T22:02:06.621Z,68.20
2018-08-16T22:04:39.529Z,69.90
2018-08-16T22:08:16.628Z,70.30
2018-08-16T22:10:49.484Z,66.80
2018-08-16T22:13:23.239Z,69.00
2018-08-16T22:15:56.217Z,69.90
2018-08-16T22:18:31.789Z,69.40
2018-08-16T22:21:04.769Z,70.00
2018-08-16T22:23:37.704Z,70.70
2018-08-16T22:26:10.676Z,69.50
2018-08-16T22:28:43.652Z,68.00
2018-08-16T22:31:16.581Z,69.50
2018-08-16T22:33:49.582Z,70.50
2018-08-16T22:36:22.995Z,69.70
2018-08-16T22:38:56.040Z,69.70
2018-08-16T22:41:29.880Z,69.60
2018-08-16T22:44:02.735Z,69.40
2018-08-16T22:46:35.656Z,69.20
2018-08-16T22:49:08.912Z,69.30
2018-08-16T22:51:43.515Z,69.20
2018-08-16T22:54:16.402Z,69.20
2018-08-16T22:56:49.315Z,69.00
2018-08-16T22:59:22.191Z,68.90
2018-08-16T23:01:55.312Z,69.00
2018-08-16T23:04:28.293Z,69.10
2018-08-16T23:07:01.717Z,69.90
2018-08-16T23:09:34.683Z,69.80
2018-08-16T23:12:08.551Z,69.50
2018-08-16T23:14:41.519Z,69.60
2018-08-16T23:17:15.023Z,69.60
2018-08-16T23:19:48.594Z,69.80
2018-08-16T23:22:21.593Z,70.10
2018-08-16T23:24:54.519Z,70.10
2018-08-16T23:27:27.388Z,70.10
2018-08-16T23:30:00.391Z,70.40
2018-08-16T23:32:33.642Z,70.50
2018-08-16T23:35:07.315Z,70.30
2018-08-16T23:37:40.214Z,70.50
2018-08-16T23:40:15.425Z,70.60
2018-08-16T23:42:48.298Z,70.60
2018-08-16T23:45:21.754Z,70.70
2018-08-16T23:49:01.042Z,70.70
2018-08-16T23:51:33.971Z,70.70
2018-08-16T23:54:08.757Z,70.90
2018-08-16T23:56:41.753Z,71.00
2018-08-16T23:59:14.865Z,71.00
